Terminal Aerodrome Forecast
Issued by NWS

Home | Current Version | Previous Version | Text Only | Print | Product List | Glossary On
Versions: 1 2 3 4 5 6 7 8 9 10 11 12 13 14 15 16 17 18 19 20 21 22 23 24 25 26 27 28 29 30 31 32 33 34 35 36 37 38 39 40 41 42 43 44
000
FTUS45 KCYS 071125 AAB
TAFRWL
TAF AMD
KRWL 071125Z 0711/0812 36010KT P6SM BKN050
      TEMPO 0712/0716 2SM -SHSN BKN025
     FM072200 29007KT P6SM SCT090=

USA.gov is the U.S. government's official web portal to all federal, state and local government web resources and services.